sensor_id;sensor_type;location;lat;lon;timestamp;temperature;humidity
15700;DHT22;7950;42.744;23.174;2022-08-01T00:02:28;17.10;99.90
15700;DHT22;7950;42.744;23.174;2022-08-01T00:04:58;17.10;99.90
15700;DHT22;7950;42.744;23.174;2022-08-01T00:07:28;17.10;99.90
15700;DHT22;7950;42.744;23.174;2022-08-01T00:10:24;17.00;99.90
15700;DHT22;7950;42.744;23.174;2022-08-01T00:12:52;17.00;99.90
15700;DHT22;7950;42.744;23.174;2022-08-01T00:15:46;16.90;99.90
15700;DHT22;7950;42.744;23.174;2022-08-01T00:18:20;16.90;99.90
15700;DHT22;7950;42.744;23.174;2022-08-01T00:20:49;16.80;99.90
15700;DHT22;7950;42.744;23.174;2022-08-01T00:23:18;16.80;99.90
15700;DHT22;7950;42.744;23.174;2022-08-01T00:25:48;16.80;99.90
15700;DHT22;7950;42.744;23.174;2022-08-01T00:28:17;16.80;99.90
15700;DHT22;7950;42.744;23.174;2022-08-01T00:30:46;16.80;99.90
15700;DHT22;7950;42.744;23.174;2022-08-01T00:33:15;16.70;99.90
15700;DHT22;7950;42.744;23.174;2022-08-01T00:35:44;16.70;99.90
15700;DHT22;7950;42.744;23.174;2022-08-01T00:38:12;16.60;99.90
15700;DHT22;7950;42.744;23.174;2022-08-01T00:40:41;16.50;99.90
15700;DHT22;7950;42.744;23.174;2022-08-01T00:43:12;16.50;99.90
15700;DHT22;7950;42.744;23.174;2022-08-01T00:45:45;16.50;99.90
15700;DHT22;7950;42.744;23.174;2022-08-01T00:48:15;16.50;99.90
15700;DHT22;7950;42.744;23.174;2022-08-01T00:50:45;16.50;99.90
15700;DHT22;7950;42.744;23.174;2022-08-01T00:53:15;16.50;99.90
15700;DHT22;7950;42.744;23.174;2022-08-01T00:55:46;16.50;99.90
15700;DHT22;7950;42.744;23.174;2022-08-01T00:58:17;16.50;99.90
15700;DHT22;7950;42.744;23.174;2022-08-01T01:00:46;16.50;99.90
15700;DHT22;7950;42.744;23.174;2022-08-01T01:03:22;16.50;99.90
15700;DHT22;7950;42.744;23.174;2022-08-01T01:06:19;16.40;99.90
15700;DHT22;7950;42.744;23.174;2022-08-01T01:09:17;16.40;99.90
15700;DHT22;7950;42.744;23.174;2022-08-01T01:12:01;16.30;99.90
15700;DHT22;7950;42.744;23.174;2022-08-01T01:15:08;16.30;99.90
15700;DHT22;7950;42.744;23.174;2022-08-01T01:17:44;16.30;99.90
15700;DHT22;7950;42.744;23.174;2022-08-01T01:20:19;16.30;99.90
15700;DHT22;7950;42.744;23.174;2022-08-01T01:23:01;16.30;99.90
15700;DHT22;7950;42.744;23.174;2022-08-01T01:25:50;16.20;99.90
15700;DHT22;7950;42.744;23.174;2022-08-01T01:28:34;16.10;99.90
15700;DHT22;7950;42.744;23.174;2022-08-01T01:31:39;16.00;99.90
15700;DHT22;7950;42.744;23.174;2022-08-01T01:34:13;15.90;99.90
15700;DHT22;7950;42.744;23.174;2022-08-01T01:36:46;15.70;99.90
15700;DHT22;7950;42.744;23.174;2022-08-01T01:39:17;15.60;99.90
15700;DHT22;7950;42.744;23.174;2022-08-01T01:41:47;15.60;99.90
15700;DHT22;7950;42.744;23.174;2022-08-01T01:44:17;15.50;99.90
15700;DHT22;7950;42.744;23.174;2022-08-01T01:46:50;15.50;99.90
15700;DHT22;7950;42.744;23.174;2022-08-01T01:49:22;15.40;99.90
15700;DHT22;7950;42.744;23.174;2022-08-01T01:51:56;15.30;99.90
15700;DHT22;7950;42.744;23.174;2022-08-01T01:54:32;15.30;99.90
15700;DHT22;7950;42.744;23.174;2022-08-01T01:57:05;15.30;99.90
15700;DHT22;7950;42.744;23.174;2022-08-01T01:59:38;15.20;99.90
15700;DHT22;7950;42.744;23.174;2022-08-01T02:02:10;15.30;99.90
15700;DHT22;7950;42.744;23.174;2022-08-01T02:04:43;15.20;99.90
15700;DHT22;7950;42.744;23.174;2022-08-01T02:07:17;15.20;99.90
15700;DHT22;7950;42.744;23.174;2022-08-01T02:09:49;15.20;99.90
15700;DHT22;7950;42.744;23.174;2022-08-01T02:12:20;15.20;99.90
15700;DHT22;7950;42.744;23.174;2022-08-01T02:14:52;15.20;99.90
15700;DHT22;7950;42.744;23.174;2022-08-01T02:17:43;15.20;99.90
15700;DHT22;7950;42.744;23.174;2022-08-01T02:20:14;15.30;99.90
15700;DHT22;7950;42.744;23.174;2022-08-01T02:22:47;15.30;99.90
15700;DHT22;7950;42.744;23.174;2022-08-01T02:25:23;15.40;99.90
15700;DHT22;7950;42.744;23.174;2022-08-01T02:28:01;15.40;99.90
15700;DHT22;7950;42.744;23.174;2022-08-01T02:30:34;15.50;99.90
15700;DHT22;7950;42.744;23.174;2022-08-01T02:33:12;15.50;99.90
15700;DHT22;7950;42.744;23.174;2022-08-01T02:35:48;15.50;99.90
15700;DHT22;7950;42.744;23.174;2022-08-01T02:38:41;15.50;99.90
15700;DHT22;7950;42.744;23.174;2022-08-01T02:41:16;15.50;99.90
15700;DHT22;7950;42.744;23.174;2022-08-01T02:43:53;15.50;99.90
15700;DHT22;7950;42.744;23.174;2022-08-01T02:46:28;15.60;99.90
15700;DHT22;7950;42.744;23.174;2022-08-01T02:49:04;15.60;99.90
15700;DHT22;7950;42.744;23.174;2022-08-01T02:51:39;15.60;99.90
15700;DHT22;7950;42.744;23.174;2022-08-01T02:54:10;15.60;99.90
15700;DHT22;7950;42.744;23.174;2022-08-01T02:56:40;15.70;99.90
15700;DHT22;7950;42.744;23.174;2022-08-01T02:59:12;15.80;99.90
15700;DHT22;7950;42.744;23.174;2022-08-01T03:01:52;15.80;99.90
15700;DHT22;7950;42.744;23.174;2022-08-01T03:04:26;15.80;99.90
15700;DHT22;7950;42.744;23.174;2022-08-01T03:06:57;15.90;99.90
15700;DHT22;7950;42.744;23.174;2022-08-01T03:09:27;15.90;99.90
15700;DHT22;7950;42.744;23.174;2022-08-01T03:12:00;15.90;99.90
15700;DHT22;7950;42.744;23.174;2022-08-01T03:14:36;15.90;99.90
15700;DHT22;7950;42.744;23.174;2022-08-01T03:17:08;15.90;99.90
15700;DHT22;7950;42.744;23.174;2022-08-01T03:19:41;15.90;99.90
15700;DHT22;7950;42.744;23.174;2022-08-01T03:22:15;15.90;99.90
15700;DHT22;7950;42.744;23.174;2022-08-01T03:24:49;16.00;99.90
15700;DHT22;7950;42.744;23.174;2022-08-01T03:27:21;15.90;99.90
15700;DHT22;7950;42.744;23.174;2022-08-01T03:29:55;16.00;99.90
15700;DHT22;7950;42.744;23.174;2022-08-01T03:32:26;16.00;99.90
15700;DHT22;7950;42.744;23.174;2022-08-01T03:34:58;16.00;99.90
15700;DHT22;7950;42.744;23.174;2022-08-01T03:37:29;16.00;99.90
15700;DHT22;7950;42.744;23.174;2022-08-01T03:40:07;16.00;99.90
15700;DHT22;7950;42.744;23.174;2022-08-01T03:42:44;16.00;99.90
15700;DHT22;7950;42.744;23.174;2022-08-01T03:45:20;16.00;99.90
15700;DHT22;7950;42.744;23.174;2022-08-01T03:47:55;16.10;99.90
15700;DHT22;7950;42.744;23.174;2022-08-01T03:50:29;16.20;99.90
15700;DHT22;7950;42.744;23.174;2022-08-01T03:53:02;16.20;99.90
15700;DHT22;7950;42.744;23.174;2022-08-01T03:55:33;16.30;99.90
15700;DHT22;7950;42.744;23.174;2022-08-01T03:58:06;16.30;99.90
15700;DHT22;7950;42.744;23.174;2022-08-01T04:00:38;16.40;99.90
15700;DHT22;7950;42.744;23.174;2022-08-01T04:03:08;16.50;99.90
15700;DHT22;7950;42.744;23.174;2022-08-01T04:05:42;16.50;99.90
15700;DHT22;7950;42.744;23.174;2022-08-01T04:08:12;16.70;99.90
15700;DHT22;7950;42.744;23.174;2022-08-01T04:10:40;16.80;99.90
15700;DHT22;7950;42.744;23.174;2022-08-01T04:13:09;16.90;99.90
15700;DHT22;7950;42.744;23.174;2022-08-01T04:15:38;17.00;99.90
15700;DHT22;7950;42.744;23.174;2022-08-01T04:18:07;17.10;99.90
15700;DHT22;7950;42.744;23.174;2022-08-01T04:20:36;17.20;99.90
15700;DHT22;7950;42.744;23.174;2022-08-01T04:23:08;17.30;99.90
15700;DHT22;7950;42.744;23.174;2022-08-01T04:25:39;17.30;99.90
15700;DHT22;7950;42.744;23.174;2022-08-01T04:28:10;17.40;99.90
15700;DHT22;7950;42.744;23.174;2022-08-01T04:31:14;17.50;99.90
15700;DHT22;7950;42.744;23.174;2022-08-01T04:33:49;17.60;99.90
15700;DHT22;7950;42.744;23.174;2022-08-01T04:36:22;17.70;99.90
15700;DHT22;7950;42.744;23.174;2022-08-01T04:38:58;17.70;99.90
15700;DHT22;7950;42.744;23.174;2022-08-01T04:41:30;17.80;99.90
15700;DHT22;7950;42.744;23.174;2022-08-01T04:44:00;17.90;99.90
15700;DHT22;7950;42.744;23.174;2022-08-01T04:46:32;18.00;99.90
15700;DHT22;7950;42.744;23.174;2022-08-01T04:49:05;18.10;99.90
15700;DHT22;7950;42.744;23.174;2022-08-01T04:51:35;18.30;99.90
15700;DHT22;7950;42.744;23.174;2022-08-01T04:54:06;18.40;99.90
15700;DHT22;7950;42.744;23.174;2022-08-01T04:56:35;18.60;99.90
15700;DHT22;7950;42.744;23.174;2022-08-01T04:59:03;18.70;99.90
15700;DHT22;7950;42.744;23.174;2022-08-01T05:01:49;18.90;99.90
15700;DHT22;7950;42.744;23.174;2022-08-01T05:04:19;19.00;99.90
15700;DHT22;7950;42.744;23.174;2022-08-01T05:06:47;19.20;99.90
15700;DHT22;7950;42.744;23.174;2022-08-01T05:09:17;19.30;99.90
15700;DHT22;7950;42.744;23.174;2022-08-01T05:11:47;19.50;99.90
15700;DHT22;7950;42.744;23.174;2022-08-01T05:14:16;19.60;99.90
15700;DHT22;7950;42.744;23.174;2022-08-01T05:16:45;19.80;99.90
15700;DHT22;7950;42.744;23.174;2022-08-01T05:19:13;19.90;99.90
15700;DHT22;7950;42.744;23.174;2022-08-01T05:21:43;20.10;99.90
15700;DHT22;7950;42.744;23.174;2022-08-01T05:24:14;20.20;99.90
15700;DHT22;7950;42.744;23.174;2022-08-01T05:26:44;20.30;99.90
15700;DHT22;7950;42.744;23.174;2022-08-01T05:29:14;20.40;99.90
15700;DHT22;7950;42.744;23.174;2022-08-01T05:31:42;20.50;99.90
15700;DHT22;7950;42.744;23.174;2022-08-01T05:34:11;20.60;99.90
15700;DHT22;7950;42.744;23.174;2022-08-01T05:36:41;20.70;99.90
15700;DHT22;7950;42.744;23.174;2022-08-01T05:39:10;20.80;99.90
15700;DHT22;7950;42.744;23.174;2022-08-01T05:41:39;20.90;99.90
15700;DHT22;7950;42.744;23.174;2022-08-01T05:44:10;21.00;99.90
15700;DHT22;7950;42.744;23.174;2022-08-01T05:46:38;21.20;99.90
15700;DHT22;7950;42.744;23.174;2022-08-01T05:49:07;21.30;99.90
15700;DHT22;7950;42.744;23.174;2022-08-01T05:51:36;21.40;99.90
15700;DHT22;7950;42.744;23.174;2022-08-01T05:54:05;21.50;99.90
15700;DHT22;7950;42.744;23.174;2022-08-01T05:56:34;21.60;99.90
15700;DHT22;7950;42.744;23.174;2022-08-01T05:59:02;21.70;99.90
15700;DHT22;7950;42.744;23.174;2022-08-01T06:01:33;21.80;99.50
15700;DHT22;7950;42.744;23.174;2022-08-01T06:04:02;21.90;99.30
15700;DHT22;7950;42.744;23.174;2022-08-01T06:06:31;21.90;98.50
15700;DHT22;7950;42.744;23.174;2022-08-01T06:08:59;22.00;98.50
15700;DHT22;7950;42.744;23.174;2022-08-01T06:11:28;22.10;97.30
15700;DHT22;7950;42.744;23.174;2022-08-01T06:13:57;22.10;99.60
15700;DHT22;7950;42.744;23.174;2022-08-01T06:16:25;22.20;97.80
15700;DHT22;7950;42.744;23.174;2022-08-01T06:18:55;22.30;97.80
15700;DHT22;7950;42.744;23.174;2022-08-01T06:21:24;22.30;97.30
15700;DHT22;7950;42.744;23.174;2022-08-01T06:23:52;22.30;97.30
15700;DHT22;7950;42.744;23.174;2022-08-01T06:26:21;22.30;99.20
15700;DHT22;7950;42.744;23.174;2022-08-01T06:28:50;22.40;96.50
15700;DHT22;7950;42.744;23.174;2022-08-01T06:31:18;22.40;97.70
15700;DHT22;7950;42.744;23.174;2022-08-01T06:33:47;22.50;95.90
15700;DHT22;7950;42.744;23.174;2022-08-01T06:36:17;22.50;97.80
15700;DHT22;7950;42.744;23.174;2022-08-01T06:38:46;22.60;97.40
15700;DHT22;7950;42.744;23.174;2022-08-01T06:41:15;22.70;97.50
15700;DHT22;7950;42.744;23.174;2022-08-01T06:43:43;22.80;95.60
15700;DHT22;7950;42.744;23.174;2022-08-01T06:46:12;22.80;95.60
15700;DHT22;7950;42.744;23.174;2022-08-01T06:48:40;22.90;95.50
15700;DHT22;7950;42.744;23.174;2022-08-01T06:51:09;22.90;96.90
15700;DHT22;7950;42.744;23.174;2022-08-01T06:53:42;23.00;96.40
15700;DHT22;7950;42.744;23.174;2022-08-01T06:56:11;23.10;95.30
15700;DHT22;7950;42.744;23.174;2022-08-01T06:58:39;23.10;94.00
15700;DHT22;7950;42.744;23.174;2022-08-01T07:01:08;23.00;94.70
15700;DHT22;7950;42.744;23.174;2022-08-01T07:03:37;23.10;94.00
15700;DHT22;7950;42.744;23.174;2022-08-01T07:06:21;23.10;93.60
15700;DHT22;7950;42.744;23.174;2022-08-01T07:08:52;23.20;94.50
15700;DHT22;7950;42.744;23.174;2022-08-01T07:11:24;23.40;93.30
15700;DHT22;7950;42.744;23.174;2022-08-01T07:13:53;23.50;93.10
15700;DHT22;7950;42.744;23.174;2022-08-01T07:16:21;23.50;91.90
15700;DHT22;7950;42.744;23.174;2022-08-01T07:18:50;23.60;93.50
15700;DHT22;7950;42.744;23.174;2022-08-01T07:21:18;23.60;90.80
15700;DHT22;7950;42.744;23.174;2022-08-01T07:24:09;23.50;91.90
15700;DHT22;7950;42.744;23.174;2022-08-01T07:27:00;23.50;91.70
15700;DHT22;7950;42.744;23.174;2022-08-01T07:29:49;23.60;92.40
15700;DHT22;7950;42.744;23.174;2022-08-01T07:32:19;23.60;91.50
15700;DHT22;7950;42.744;23.174;2022-08-01T07:34:48;23.70;92.30
15700;DHT22;7950;42.744;23.174;2022-08-01T07:37:21;23.80;92.40
15700;DHT22;7950;42.744;23.174;2022-08-01T07:40:12;23.90;91.60
15700;DHT22;7950;42.744;23.174;2022-08-01T07:42:41;23.90;90.90
15700;DHT22;7950;42.744;23.174;2022-08-01T07:45:12;24.00;91.00
15700;DHT22;7950;42.744;23.174;2022-08-01T07:47:52;24.00;92.00
15700;DHT22;7950;42.744;23.174;2022-08-01T07:50:21;24.10;92.10
15700;DHT22;7950;42.744;23.174;2022-08-01T07:52:49;24.20;91.10
15700;DHT22;7950;42.744;23.174;2022-08-01T07:55:19;24.20;90.70
15700;DHT22;7950;42.744;23.174;2022-08-01T07:57:48;24.20;90.00
15700;DHT22;7950;42.744;23.174;2022-08-01T08:00:17;24.20;90.50
15700;DHT22;7950;42.744;23.174;2022-08-01T08:02:46;24.20;90.00
15700;DHT22;7950;42.744;23.174;2022-08-01T08:05:15;24.30;88.90
15700;DHT22;7950;42.744;23.174;2022-08-01T08:08:04;24.20;88.10
15700;DHT22;7950;42.744;23.174;2022-08-01T08:10:35;24.20;88.60
15700;DHT22;7950;42.744;23.174;2022-08-01T08:13:07;24.30;88.80
15700;DHT22;7950;42.744;23.174;2022-08-01T08:16:00;24.30;90.00
15700;DHT22;7950;42.744;23.174;2022-08-01T08:18:29;24.40;87.10
15700;DHT22;7950;42.744;23.174;2022-08-01T08:20:57;24.40;86.90
15700;DHT22;7950;42.744;23.174;2022-08-01T08:23:32;24.50;87.30
15700;DHT22;7950;42.744;23.174;2022-08-01T08:26:19;24.60;86.00
15700;DHT22;7950;42.744;23.174;2022-08-01T08:28:50;24.60;86.00
15700;DHT22;7950;42.744;23.174;2022-08-01T08:31:19;24.70;82.20
15700;DHT22;7950;42.744;23.174;2022-08-01T08:34:07;24.80;82.50
15700;DHT22;7950;42.744;23.174;2022-08-01T08:37:01;24.90;81.90
15700;DHT22;7950;42.744;23.174;2022-08-01T08:39:30;24.90;80.30
15700;DHT22;7950;42.744;23.174;2022-08-01T08:42:10;24.90;81.40
15700;DHT22;7950;42.744;23.174;2022-08-01T08:44:40;25.00;80.00
15700;DHT22;7950;42.744;23.174;2022-08-01T08:47:14;25.00;82.60
15700;DHT22;7950;42.744;23.174;2022-08-01T08:49:48;25.00;80.70
15700;DHT22;7950;42.744;23.174;2022-08-01T08:52:19;24.90;78.90
15700;DHT22;7950;42.744;23.174;2022-08-01T08:54:50;24.90;81.50
15700;DHT22;7950;42.744;23.174;2022-08-01T08:57:21;25.00;79.50
15700;DHT22;7950;42.744;23.174;2022-08-01T08:59:49;25.00;80.60
15700;DHT22;7950;42.744;23.174;2022-08-01T09:02:21;25.00;77.50
15700;DHT22;7950;42.744;23.174;2022-08-01T09:04:50;24.90;76.80
15700;DHT22;7950;42.744;23.174;2022-08-01T09:07:19;24.90;74.00
15700;DHT22;7950;42.744;23.174;2022-08-01T09:09:48;25.10;77.20
15700;DHT22;7950;42.744;23.174;2022-08-01T09:12:17;25.20;76.70
15700;DHT22;7950;42.744;23.174;2022-08-01T09:14:53;25.30;75.60
15700;DHT22;7950;42.744;23.174;2022-08-01T09:17:22;25.50;77.90
15700;DHT22;7950;42.744;23.174;2022-08-01T09:19:53;25.50;74.60
15700;DHT22;7950;42.744;23.174;2022-08-01T09:22:25;25.70;74.10
15700;DHT22;7950;42.744;23.174;2022-08-01T09:24:59;25.70;73.90
15700;DHT22;7950;42.744;23.174;2022-08-01T09:27:29;25.80;74.20
15700;DHT22;7950;42.744;23.174;2022-08-01T09:30:10;25.80;75.40
15700;DHT22;7950;42.744;23.174;2022-08-01T09:32:57;25.70;76.10
15700;DHT22;7950;42.744;23.174;2022-08-01T09:35:54;25.60;77.60
15700;DHT22;7950;42.744;23.174;2022-08-01T09:38:25;25.60;78.50
15700;DHT22;7950;42.744;23.174;2022-08-01T09:40:57;25.60;76.20
15700;DHT22;7950;42.744;23.174;2022-08-01T09:43:29;25.50;76.90
15700;DHT22;7950;42.744;23.174;2022-08-01T09:46:04;25.60;77.60
15700;DHT22;7950;42.744;23.174;2022-08-01T09:48:38;25.60;77.90
15700;DHT22;7950;42.744;23.174;2022-08-01T09:51:48;25.60;76.40
15700;DHT22;7950;42.744;23.174;2022-08-01T09:54:31;25.80;75.60
15700;DHT22;7950;42.744;23.174;2022-08-01T09:57:12;25.90;76.90
15700;DHT22;7950;42.744;23.174;2022-08-01T09:59:44;25.90;76.60
15700;DHT22;7950;42.744;23.174;2022-08-01T10:02:32;26.00;77.60
15700;DHT22;7950;42.744;23.174;2022-08-01T10:05:03;26.10;75.20
15700;DHT22;7950;42.744;23.174;2022-08-01T10:07:35;26.30;77.10
15700;DHT22;7950;42.744;23.174;2022-08-01T10:10:24;26.40;74.30
15700;DHT22;7950;42.744;23.174;2022-08-01T10:12:57;26.40;74.10
15700;DHT22;7950;42.744;23.174;2022-08-01T10:15:27;26.40;72.20
15700;DHT22;7950;42.744;23.174;2022-08-01T10:18:07;26.10;71.40
15700;DHT22;7950;42.744;23.174;2022-08-01T10:20:53;26.10;74.30
15700;DHT22;7950;42.744;23.174;2022-08-01T10:23:25;26.20;72.10
15700;DHT22;7950;42.744;23.174;2022-08-01T10:26:07;26.30;71.80
15700;DHT22;7950;42.744;23.174;2022-08-01T10:28:39;26.40;71.20
15700;DHT22;7950;42.744;23.174;2022-08-01T10:31:11;26.40;70.20
15700;DHT22;7950;42.744;23.174;2022-08-01T10:33:47;26.40;69.80
15700;DHT22;7950;42.744;23.174;2022-08-01T10:36:20;26.40;71.00
15700;DHT22;7950;42.744;23.174;2022-08-01T10:38:53;26.40;70.70
15700;DHT22;7950;42.744;23.174;2022-08-01T10:41:24;26.60;71.60
15700;DHT22;7950;42.744;23.174;2022-08-01T10:43:57;26.70;70.10
15700;DHT22;7950;42.744;23.174;2022-08-01T10:46:26;26.80;70.80
15700;DHT22;7950;42.744;23.174;2022-08-01T10:49:03;26.90;70.80
15700;DHT22;7950;42.744;23.174;2022-08-01T10:51:35;26.90;69.80
15700;DHT22;7950;42.744;23.174;2022-08-01T10:54:24;27.00;69.50
15700;DHT22;7950;42.744;23.174;2022-08-01T10:56:53;26.90;68.10
15700;DHT22;7950;42.744;23.174;2022-08-01T10:59:25;26.90;67.30
15700;DHT22;7950;42.744;23.174;2022-08-01T11:02:26;26.80;68.50
15700;DHT22;7950;42.744;23.174;2022-08-01T11:05:02;26.80;69.80
15700;DHT22;7950;42.744;23.174;2022-08-01T11:07:42;26.90;70.90
15700;DHT22;7950;42.744;23.174;2022-08-01T11:10:22;27.00;69.20
15700;DHT22;7950;42.744;23.174;2022-08-01T11:12:53;26.90;69.30
15700;DHT22;7950;42.744;23.174;2022-08-01T11:15:24;27.00;69.20
15700;DHT22;7950;42.744;23.174;2022-08-01T11:17:57;27.20;70.20
15700;DHT22;7950;42.744;23.174;2022-08-01T11:20:30;27.20;67.40
15700;DHT22;7950;42.744;23.174;2022-08-01T11:23:30;27.10;68.40
15700;DHT22;7950;42.744;23.174;2022-08-01T11:26:16;27.10;67.60
15700;DHT22;7950;42.744;23.174;2022-08-01T11:29:14;27.10;68.00
15700;DHT22;7950;42.744;23.174;2022-08-01T11:31:47;27.20;68.70
15700;DHT22;7950;42.744;23.174;2022-08-01T11:34:16;27.30;67.70
15700;DHT22;7950;42.744;23.174;2022-08-01T11:36:47;27.20;66.70
15700;DHT22;7950;42.744;23.174;2022-08-01T11:39:25;27.10;68.10
15700;DHT22;7950;42.744;23.174;2022-08-01T11:42:18;27.10;68.70
15700;DHT22;7950;42.744;23.174;2022-08-01T11:44:49;27.20;69.50
15700;DHT22;7950;42.744;23.174;2022-08-01T11:47:21;27.20;68.70
15700;DHT22;7950;42.744;23.174;2022-08-01T11:50:35;27.00;69.20
15700;DHT22;7950;42.744;23.174;2022-08-01T11:53:07;27.00;70.30
15700;DHT22;7950;42.744;23.174;2022-08-01T11:55:45;27.10;69.30
15700;DHT22;7950;42.744;23.174;2022-08-01T11:58:21;27.20;69.50
15700;DHT22;7950;42.744;23.174;2022-08-01T12:00:56;27.20;67.10
15700;DHT22;7950;42.744;23.174;2022-08-01T12:03:55;27.30;69.10
15700;DHT22;7950;42.744;23.174;2022-08-01T12:06:27;27.40;68.70
15700;DHT22;7950;42.744;23.174;2022-08-01T12:09:15;27.40;67.80
15700;DHT22;7950;42.744;23.174;2022-08-01T12:11:45;27.50;70.30
15700;DHT22;7950;42.744;23.174;2022-08-01T12:14:18;27.60;69.00
15700;DHT22;7950;42.744;23.174;2022-08-01T12:16:52;27.60;67.40
15700;DHT22;7950;42.744;23.174;2022-08-01T12:19:23;27.60;66.70
15700;DHT22;7950;42.744;23.174;2022-08-01T12:22:05;27.70;67.50
15700;DHT22;7950;42.744;23.174;2022-08-01T12:24:38;27.50;66.30
15700;DHT22;7950;42.744;23.174;2022-08-01T12:27:09;27.60;67.30
15700;DHT22;7950;42.744;23.174;2022-08-01T12:29:40;27.60;69.00
15700;DHT22;7950;42.744;23.174;2022-08-01T12:32:25;27.60;69.70
15700;DHT22;7950;42.744;23.174;2022-08-01T12:35:04;27.70;67.50
15700;DHT22;7950;42.744;23.174;2022-08-01T12:37:36;27.70;66.80
15700;DHT22;7950;42.744;23.174;2022-08-01T12:40:32;27.60;67.10
15700;DHT22;7950;42.744;23.174;2022-08-01T12:43:03;27.60;67.10
15700;DHT22;7950;42.744;23.174;2022-08-01T12:45:37;27.70;68.50
15700;DHT22;7950;42.744;23.174;2022-08-01T12:48:22;27.70;67.20
15700;DHT22;7950;42.744;23.174;2022-08-01T12:50:52;27.70;67.00
15700;DHT22;7950;42.744;23.174;2022-08-01T12:53:25;27.60;68.30
15700;DHT22;7950;42.744;23.174;2022-08-01T12:56:09;27.40;67.60
15700;DHT22;7950;42.744;23.174;2022-08-01T12:58:38;27.30;67.50
15700;DHT22;7950;42.744;23.174;2022-08-01T13:01:09;27.30;68.80
15700;DHT22;7950;42.744;23.174;2022-08-01T13:03:39;27.40;68.90
15700;DHT22;7950;42.744;23.174;2022-08-01T13:06:12;27.50;67.00
15700;DHT22;7950;42.744;23.174;2022-08-01T13:08:49;27.30;67.30
15700;DHT22;7950;42.744;23.174;2022-08-01T13:11:19;27.30;67.90
15700;DHT22;7950;42.744;23.174;2022-08-01T13:13:49;27.40;66.90
15700;DHT22;7950;42.744;23.174;2022-08-01T13:16:21;27.40;67.80
15700;DHT22;7950;42.744;23.174;2022-08-01T13:19:00;27.50;66.80
15700;DHT22;7950;42.744;23.174;2022-08-01T13:21:29;27.40;67.40
15700;DHT22;7950;42.744;23.174;2022-08-01T13:24:24;27.10;67.70
15700;DHT22;7950;42.744;23.174;2022-08-01T13:26:57;26.90;67.20
15700;DHT22;7950;42.744;23.174;2022-08-01T13:29:32;26.60;69.40
15700;DHT22;7950;42.744;23.174;2022-08-01T13:32:12;26.50;69.30
15700;DHT22;7950;42.744;23.174;2022-08-01T13:35:27;26.50;70.20
15700;DHT22;7950;42.744;23.174;2022-08-01T13:37:55;26.70;68.90
15700;DHT22;7950;42.744;23.174;2022-08-01T13:40:26;26.80;70.00
15700;DHT22;7950;42.744;23.174;2022-08-01T13:42:57;26.90;71.40
15700;DHT22;7950;42.744;23.174;2022-08-01T13:45:25;27.20;69.90
15700;DHT22;7950;42.744;23.174;2022-08-01T13:47:54;27.30;70.50
15700;DHT22;7950;42.744;23.174;2022-08-01T13:50:42;27.40;68.60
15700;DHT22;7950;42.744;23.174;2022-08-01T13:53:28;27.40;70.80
15700;DHT22;7950;42.744;23.174;2022-08-01T13:55:57;27.40;69.70
15700;DHT22;7950;42.744;23.174;2022-08-01T13:58:27;27.40;68.40
15700;DHT22;7950;42.744;23.174;2022-08-01T14:00:56;27.40;68.50
15700;DHT22;7950;42.744;23.174;2022-08-01T14:03:25;27.40;68.80
15700;DHT22;7950;42.744;23.174;2022-08-01T14:06:00;27.20;67.70
15700;DHT22;7950;42.744;23.174;2022-08-01T14:08:28;26.90;69.10
15700;DHT22;7950;42.744;23.174;2022-08-01T14:10:57;26.70;69.70
15700;DHT22;7950;42.744;23.174;2022-08-01T14:13:27;26.60;69.20
15700;DHT22;7950;42.744;23.174;2022-08-01T14:16:03;26.70;69.80
15700;DHT22;7950;42.744;23.174;2022-08-01T14:18:32;26.70;69.80
15700;DHT22;7950;42.744;23.174;2022-08-01T14:21:04;26.90;69.80
15700;DHT22;7950;42.744;23.174;2022-08-01T14:23:32;27.00;69.20
15700;DHT22;7950;42.744;23.174;2022-08-01T14:26:01;27.10;69.30
15700;DHT22;7950;42.744;23.174;2022-08-01T14:28:45;27.10;69.30
15700;DHT22;7950;42.744;23.174;2022-08-01T14:31:14;27.20;68.30
15700;DHT22;7950;42.744;23.174;2022-08-01T14:33:43;27.10;68.60
15700;DHT22;7950;42.744;23.174;2022-08-01T14:36:11;27.10;69.00
15700;DHT22;7950;42.744;23.174;2022-08-01T14:38:57;27.10;69.10
15700;DHT22;7950;42.744;23.174;2022-08-01T14:41:26;27.10;68.70
15700;DHT22;7950;42.744;23.174;2022-08-01T14:44:01;27.20;67.80
15700;DHT22;7950;42.744;23.174;2022-08-01T14:46:31;27.20;68.70
15700;DHT22;7950;42.744;23.174;2022-08-01T14:49:00;27.20;67.30
15700;DHT22;7950;42.744;23.174;2022-08-01T14:51:28;27.10;67.30
15700;DHT22;7950;42.744;23.174;2022-08-01T14:53:59;27.20;68.70
15700;DHT22;7950;42.744;23.174;2022-08-01T14:56:29;27.30;69.50
15700;DHT22;7950;42.744;23.174;2022-08-01T14:58:58;27.40;69.30
15700;DHT22;7950;42.744;23.174;2022-08-01T15:01:40;27.50;67.30
15700;DHT22;7950;42.744;23.174;2022-08-01T15:04:08;27.60;67.50
15700;DHT22;7950;42.744;23.174;2022-08-01T15:06:37;27.70;67.10
15700;DHT22;7950;42.744;23.174;2022-08-01T15:09:18;27.70;67.00
15700;DHT22;7950;42.744;23.174;2022-08-01T15:11:46;27.70;66.40
15700;DHT22;7950;42.744;23.174;2022-08-01T15:14:15;27.70;66.40
15700;DHT22;7950;42.744;23.174;2022-08-01T15:17:02;27.80;66.60
15700;DHT22;7950;42.744;23.174;2022-08-01T15:19:32;27.80;66.40
15700;DHT22;7950;42.744;23.174;2022-08-01T15:22:10;27.90;65.90
15700;DHT22;7950;42.744;23.174;2022-08-01T15:24:38;27.80;65.90
15700;DHT22;7950;42.744;23.174;2022-08-01T15:27:08;27.80;65.80
15700;DHT22;7950;42.744;23.174;2022-08-01T15:29:37;27.90;65.60
15700;DHT22;7950;42.744;23.174;2022-08-01T15:32:08;27.90;65.90
15700;DHT22;7950;42.744;23.174;2022-08-01T15:34:38;27.70;65.20
15700;DHT22;7950;42.744;23.174;2022-08-01T15:37:08;27.40;64.90
15700;DHT22;7950;42.744;23.174;2022-08-01T15:39:38;27.40;65.60
15700;DHT22;7950;42.744;23.174;2022-08-01T15:42:10;27.30;64.90
15700;DHT22;7950;42.744;23.174;2022-08-01T15:44:46;27.40;64.80
15700;DHT22;7950;42.744;23.174;2022-08-01T15:47:16;27.40;65.30
15700;DHT22;7950;42.744;23.174;2022-08-01T15:49:46;27.40;64.60
15700;DHT22;7950;42.744;23.174;2022-08-01T15:52:18;27.50;64.50
15700;DHT22;7950;42.744;23.174;2022-08-01T15:54:57;27.60;64.20
15700;DHT22;7950;42.744;23.174;2022-08-01T15:57:26;27.60;64.70
15700;DHT22;7950;42.744;23.174;2022-08-01T15:59:54;27.70;63.80
15700;DHT22;7950;42.744;23.174;2022-08-01T16:02:25;27.70;63.70
15700;DHT22;7950;42.744;23.174;2022-08-01T16:04:54;27.60;63.70
15700;DHT22;7950;42.744;23.174;2022-08-01T16:07:22;27.60;62.70
15700;DHT22;7950;42.744;23.174;2022-08-01T16:09:51;27.60;63.10
15700;DHT22;7950;42.744;23.174;2022-08-01T16:12:19;27.50;63.00
15700;DHT22;7950;42.744;23.174;2022-08-01T16:14:48;27.20;62.50